Time;durP1;ratioP1;P1;durP2;ratioP2;P2;SDS_P1;SDS_P2;PMS_P1;PMS_P2;Temp;Humidity;BMP_temperature;BMP_pressure;BME280_temperature;BME280_humidity;BME280_pressure;Samples;Min_cycle;Max_cycle;Signal;HPM_P1;HPM_P2
2022/01/30 00:00:36;;;;;;;1.10;1.00;;;6.50;99.90;;;;;;4994272;28;20390;-77
2022/01/30 00:03:02;;;;;;;1.10;1.00;;;6.50;99.90;;;;;;4994159;28;20046;-77
2022/01/30 00:05:28;;;;;;;2.13;1.03;;;6.40;99.90;;;;;;4994281;28;20027;-77
2022/01/30 00:07:54;;;;;;;2.67;1.20;;;6.40;99.90;;;;;;4994100;28;20022;-77
2022/01/30 00:10:20;;;;;;;1.73;1.20;;;6.40;99.90;;;;;;4994043;28;20154;-77
2022/01/30 00:12:50;;;;;;;1.37;1.03;;;6.40;99.90;;;;;;4994036;28;20053;-77
2022/01/30 00:15:18;;;;;;;1.90;1.10;;;6.40;99.90;;;;;;5005910;28;20049;-77
2022/01/30 00:17:51;;;;;;;2.07;1.37;;;6.30;99.90;;;;;;5013548;28;20024;-77
2022/01/30 00:20:23;;;;;;;0.90;0.90;;;6.40;99.90;;;;;;5013610;28;20041;-77
2022/01/30 00:23:08;;;;;;;1.20;1.00;;;6.30;99.90;;;;;;5012483;28;20440;-77
2022/01/30 00:25:45;;;;;;;1.30;1.00;;;6.40;99.90;;;;;;5006741;28;20033;-77
2022/01/30 00:28:13;;;;;;;1.57;1.23;;;6.40;99.90;;;;;;5013330;28;20113;-77
2022/01/30 00:30:38;;;;;;;1.10;1.00;;;6.30;99.90;;;;;;5013379;28;20026;-77
2022/01/30 00:33:05;;;;;;;1.30;1.00;;;6.30;99.90;;;;;;5013142;28;20022;-77
2022/01/30 00:35:35;;;;;;;1.17;0.90;;;6.30;99.90;;;;;;5013228;28;20033;-77
2022/01/30 00:38:02;;;;;;;1.13;1.03;;;6.30;99.90;;;;;;5013142;28;20022;-77
2022/01/30 00:40:28;;;;;;;2.27;0.90;;;6.20;99.90;;;;;;5012911;28;20022;-77
2022/01/30 00:42:53;;;;;;;2.57;1.30;;;6.20;99.90;;;;;;5013102;28;20044;-77
2022/01/30 00:45:19;;;;;;;1.27;1.10;;;6.20;99.90;;;;;;5010889;28;20026;-77
2022/01/30 00:47:45;;;;;;;1.10;1.00;;;6.20;99.90;;;;;;5011738;28;20025;-77
2022/01/30 00:50:10;;;;;;;1.50;1.10;;;6.30;99.90;;;;;;5013038;28;20033;-77
2022/01/30 00:52:36;;;;;;;1.27;1.03;;;6.20;99.90;;;;;;5011614;28;20022;-77
2022/01/30 00:55:03;;;;;;;1.10;1.00;;;6.20;99.90;;;;;;5012902;28;20026;-77
2022/01/30 00:57:29;;;;;;;1.70;1.10;;;6.20;99.90;;;;;;5013031;28;20474;-77
2022/01/30 00:59:55;;;;;;;1.33;1.10;;;6.10;99.90;;;;;;5013639;28;20366;-77
2022/01/30 01:02:21;;;;;;;2.07;1.03;;;6.20;99.90;;;;;;5012890;28;20121;-77
2022/01/30 01:04:47;;;;;;;1.10;1.00;;;6.10;99.90;;;;;;5011466;28;20050;-77
2022/01/30 01:07:19;;;;;;;1.10;1.00;;;6.20;99.90;;;;;;5012768;28;20471;-77
2022/01/30 01:09:54;;;;;;;1.10;0.97;;;6.10;99.90;;;;;;5012909;28;20121;-77
2022/01/30 01:25:46;;;;;;;1.20;1.03;;;6.10;99.90;;;;;;5012594;28;20029;-77
2022/01/30 01:28:12;;;;;;;1.67;1.00;;;6.20;99.90;;;;;;5011354;28;20378;-77
2022/01/30 01:30:37;;;;;;;1.20;1.07;;;6.20;99.90;;;;;;5012614;28;20021;-77
2022/01/30 01:33:04;;;;;;;1.43;1.03;;;6.10;99.90;;;;;;5012683;28;20426;-77
2022/01/30 01:35:30;;;;;;;1.77;0.90;;;6.10;99.90;;;;;;5012980;28;20474;-77
2022/01/30 01:37:55;;;;;;;1.13;1.03;;;6.20;99.90;;;;;;5012521;28;20026;-76
2022/01/30 01:40:22;;;;;;;0.90;0.73;;;6.20;99.90;;;;;;5012711;28;20095;-76
2022/01/30 01:42:47;;;;;;;1.63;1.00;;;6.30;99.90;;;;;;5012498;28;20101;-76
2022/01/30 01:45:20;;;;;;;1.33;1.07;;;6.30;99.90;;;;;;5012906;28;20106;-76
2022/01/30 01:47:46;;;;;;;0.93;0.83;;;6.30;99.90;;;;;;5012608;28;20053;-76
2022/01/30 01:50:17;;;;;;;0.93;0.83;;;6.20;99.90;;;;;;5011259;28;20026;-76
2022/01/30 01:52:45;;;;;;;0.90;0.90;;;6.30;99.90;;;;;;5012375;28;20026;-76
2022/01/30 01:55:11;;;;;;;0.90;0.90;;;6.20;99.90;;;;;;5012584;28;20034;-76
2022/01/30 01:57:36;;;;;;;1.73;1.10;;;6.20;99.90;;;;;;5012705;28;20117;-75
2022/01/30 02:00:04;;;;;;;1.10;1.00;;;6.20;99.90;;;;;;5011352;28;20480;-76
2022/01/30 02:02:30;;;;;;;0.90;0.90;;;6.30;99.90;;;;;;5010854;28;20072;-76
2022/01/30 02:04:58;;;;;;;1.70;1.00;;;6.20;99.90;;;;;;5012374;28;20022;-76
2022/01/30 02:10:05;;;;;;;1.73;1.10;;;6.10;99.90;;;;;;5012529;28;20099;-76
2022/01/30 02:12:47;;;;;;;1.80;1.10;;;6.10;99.90;;;;;;5012312;28;20041;-77
2022/01/30 02:15:46;;;;;;;0.90;0.90;;;6.20;99.90;;;;;;5012109;28;20080;-77
2022/01/30 02:26:17;;;;;;;1.13;1.00;;;6.00;99.90;;;;;;5015326;28;20395;-77
2022/01/30 02:28:43;;;;;;;1.30;0.87;;;6.00;99.90;;;;;;5015417;28;20022;-76
2022/01/30 02:31:13;;;;;;;2.00;1.10;;;6.00;99.90;;;;;;5015338;28;20463;-76
2022/01/30 02:33:40;;;;;;;1.40;1.10;;;6.10;99.90;;;;;;5015428;28;20018;-76
2022/01/30 02:36:06;;;;;;;1.00;0.90;;;6.10;99.90;;;;;;5015447;28;20018;-77
2022/01/30 02:38:32;;;;;;;1.30;1.03;;;6.10;99.90;;;;;;5013807;28;20026;-77
2022/01/30 02:40:58;;;;;;;1.30;0.97;;;6.10;99.90;;;;;;5014643;28;20073;-83
2022/01/30 02:43:33;;;;;;;2.43;1.17;;;6.10;99.90;;;;;;5012880;28;20430;-83
2022/01/30 02:48:34;;;;;;;1.10;1.00;;;6.00;99.90;;;;;;5012521;28;20044;-83
2022/01/30 02:51:12;;;;;;;1.20;1.10;;;6.00;99.90;;;;;;5012705;28;20030;-83
2022/01/30 02:53:42;;;;;;;0.90;0.90;;;6.00;99.90;;;;;;5012488;28;20068;-83
2022/01/30 02:56:08;;;;;;;0.90;0.90;;;6.10;99.90;;;;;;5012730;28;20105;-83
2022/01/30 02:58:34;;;;;;;0.97;0.90;;;6.10;99.90;;;;;;5012336;28;20162;-83
2022/01/30 03:01:00;;;;;;;1.37;1.27;;;6.10;99.90;;;;;;5012507;28;20042;-83
2022/01/30 03:03:25;;;;;;;1.37;1.00;;;6.10;99.90;;;;;;5011164;28;20042;-83
2022/01/30 03:05:51;;;;;;;1.33;1.00;;;6.00;99.90;;;;;;5012336;28;20044;-83
2022/01/30 03:08:17;;;;;;;0.90;0.80;;;6.00;99.90;;;;;;5012283;28;20034;-83
2022/01/30 03:10:42;;;;;;;1.10;0.90;;;6.00;99.90;;;;;;5011993;28;20038;-83
2022/01/30 03:13:08;;;;;;;1.03;0.90;;;6.00;99.90;;;;;;5012419;28;20022;-83
2022/01/30 03:15:35;;;;;;;0.80;0.80;;;6.00;99.90;;;;;;5012220;28;20076;-83
2022/01/30 03:18:00;;;;;;;0.93;0.90;;;6.00;99.90;;;;;;5012214;28;20037;-83
2022/01/30 03:20:26;;;;;;;3.20;1.17;;;6.10;99.90;;;;;;5012145;28;20081;-83
2022/01/30 03:22:52;;;;;;;0.80;0.80;;;6.00;99.90;;;;;;5012224;28;20087;-83
2022/01/30 03:25:17;;;;;;;1.43;1.10;;;6.10;99.90;;;;;;5007945;28;20108;-83
2022/01/30 03:27:52;;;;;;;0.87;0.87;;;6.10;99.90;;;;;;5002783;28;20768;-83
2022/01/30 03:30:26;;;;;;;1.10;0.97;;;6.10;99.90;;;;;;5011832;28;20048;-84
2022/01/30 03:32:51;;;;;;;1.07;0.90;;;6.20;99.90;;;;;;5012093;28;20649;-83
2022/01/30 03:35:17;;;;;;;0.93;0.73;;;6.00;99.90;;;;;;5011902;28;20061;-84
2022/01/30 03:37:43;;;;;;;1.00;0.80;;;5.90;99.90;;;;;;5011714;28;20497;-83
2022/01/30 03:40:09;;;;;;;1.53;0.90;;;6.00;99.90;;;;;;5011765;28;20026;-83
2022/01/30 03:42:35;;;;;;;1.07;0.93;;;6.00;99.90;;;;;;5011365;28;20507;-83
2022/01/30 03:45:00;;;;;;;1.23;1.00;;;6.00;99.90;;;;;;5011676;28;20036;-83
2022/01/30 03:47:26;;;;;;;2.07;1.20;;;6.20;99.90;;;;;;5011676;28;20041;-82
2022/01/30 03:49:52;;;;;;;1.03;0.93;;;6.10;99.90;;;;;;5011562;28;20453;-83
2022/01/30 03:52:18;;;;;;;1.67;1.10;;;6.10;99.90;;;;;;5011278;28;20034;-83
2022/01/30 03:54:44;;;;;;;0.90;0.90;;;6.10;99.90;;;;;;5011030;28;20037;-83
2022/01/30 03:57:10;;;;;;;1.03;0.93;;;6.00;99.90;;;;;;5011441;28;20041;-82
2022/01/30 03:59:35;;;;;;;1.23;1.10;;;6.00;99.90;;;;;;5011569;28;20037;-83
2022/01/30 04:02:01;;;;;;;0.97;0.80;;;5.90;99.90;;;;;;5011226;28;20481;-82
2022/01/30 04:04:27;;;;;;;1.53;1.00;;;6.00;99.90;;;;;;5011191;28;20418;-82
2022/01/30 04:06:56;;;;;;;1.10;1.00;;;5.90;99.90;;;;;;5011454;28;20411;-83
2022/01/30 04:09:21;;;;;;;1.40;1.10;;;6.00;99.90;;;;;;5011552;28;20066;-83
2022/01/30 04:11:47;;;;;;;2.20;1.00;;;6.00;99.90;;;;;;5011471;28;20069;-82
2022/01/30 04:14:13;;;;;;;1.17;0.90;;;6.00;99.90;;;;;;5011255;28;20116;-83
2022/01/30 04:16:38;;;;;;;2.20;1.10;;;6.00;99.90;;;;;;5009730;28;20079;-83
2022/01/30 04:19:04;;;;;;;1.53;1.07;;;5.90;99.90;;;;;;5011540;28;20026;-83
2022/01/30 04:21:30;;;;;;;0.90;0.90;;;5.80;99.90;;;;;;5011552;28;20034;-83
2022/01/30 04:23:56;;;;;;;1.53;1.10;;;5.90;99.90;;;;;;5010700;28;20156;-83
2022/01/30 04:26:21;;;;;;;1.20;1.10;;;5.90;99.90;;;;;;5005144;28;20029;-83
2022/01/30 04:28:47;;;;;;;1.10;1.00;;;5.80;99.90;;;;;;5010862;28;20104;-83
2022/01/30 04:31:13;;;;;;;2.30;1.00;;;5.80;99.90;;;;;;5010923;28;20164;-83
2022/01/30 04:33:39;;;;;;;1.40;1.00;;;5.80;99.90;;;;;;5010952;28;20030;-83
2022/01/30 04:36:08;;;;;;;1.03;0.93;;;5.90;99.90;;;;;;5011336;28;20034;-83
2022/01/30 04:39:00;;;;;;;1.17;1.00;;;5.90;99.90;;;;;;5010672;28;20030;-83
2022/01/30 04:55:07;;;;;;;1.20;1.10;;;5.80;99.90;;;;;;5010479;28;20026;-82
2022/01/30 04:57:38;;;;;;;1.20;1.10;;;5.80;99.90;;;;;;4995971;28;20048;-83
2022/01/30 05:03:05;;;;;;;1.58;1.40;;;5.70;99.90;;;;;;5010723;28;20108;-83
2022/01/30 05:05:59;;;;;;;1.70;1.40;;;5.60;99.90;;;;;;5010485;28;20065;-83
2022/01/30 05:08:25;;;;;;;1.93;1.40;;;5.60;99.90;;;;;;5009351;28;20030;-83
2022/01/30 05:10:52;;;;;;;2.80;1.27;;;5.50;99.90;;;;;;5010755;28;20034;-83
2022/01/30 05:13:21;;;;;;;1.80;1.30;;;5.60;99.90;;;;;;5010651;28;20018;-83
2022/01/30 05:15:47;;;;;;;1.57;1.30;;;5.60;99.90;;;;;;5011373;28;20058;-83
2022/01/30 05:18:24;;;;;;;2.77;1.50;;;5.60;99.90;;;;;;5010572;28;20129;-83
2022/01/30 05:20:50;;;;;;;2.30;1.50;;;5.70;99.90;;;;;;5010689;28;20045;-83
2022/01/30 05:23:17;;;;;;;1.57;1.23;;;5.70;99.90;;;;;;5010819;28;20033;-84
2022/01/30 05:25:46;;;;;;;1.77;1.30;;;5.70;99.90;;;;;;4998385;28;20031;-83
2022/01/30 05:28:13;;;;;;;1.30;1.07;;;5.70;99.90;;;;;;5002593;28;20038;-83
2022/01/30 05:30:39;;;;;;;1.73;1.20;;;5.70;99.90;;;;;;5010323;28;20074;-83
2022/01/30 05:33:05;;;;;;;2.17;1.40;;;5.70;99.90;;;;;;5010425;28;20041;-83
2022/01/30 05:35:31;;;;;;;1.50;1.30;;;5.80;99.90;;;;;;5005794;28;20081;-83
2022/01/30 05:37:56;;;;;;;2.17;1.23;;;5.70;99.90;;;;;;5000084;28;20018;-76
2022/01/30 05:40:23;;;;;;;1.47;1.17;;;5.70;99.90;;;;;;5012409;28;20018;-76
2022/01/30 05:42:50;;;;;;;2.87;1.60;;;5.70;99.90;;;;;;5000985;28;20159;-76
2022/01/30 05:45:28;;;;;;;2.53;1.70;;;5.60;99.90;;;;;;5010697;28;20076;-76
2022/01/30 05:47:59;;;;;;;2.13;1.70;;;5.50;99.90;;;;;;4994959;28;20367;-76
2022/01/30 05:50:25;;;;;;;2.83;2.00;;;5.40;99.90;;;;;;5013140;28;20029;-77
2022/01/30 05:52:50;;;;;;;2.43;2.00;;;5.30;99.90;;;;;;5000458;28;20083;-77
2022/01/30 05:55:16;;;;;;;3.00;2.17;;;5.30;99.90;;;;;;4997122;28;20030;-77
2022/01/30 05:57:42;;;;;;;2.87;2.10;;;5.30;99.90;;;;;;5009736;28;20105;-77
2022/01/30 06:00:13;;;;;;;2.80;1.87;;;5.30;99.90;;;;;;5013397;28;20068;-83
2022/01/30 06:02:42;;;;;;;2.80;2.27;;;5.30;99.90;;;;;;5007468;28;20050;-83
2022/01/30 06:05:09;;;;;;;3.27;2.40;;;5.10;99.90;;;;;;5012262;28;20029;-83
2022/01/30 06:07:37;;;;;;;4.40;2.10;;;5.20;99.90;;;;;;5010439;28;20022;-83
2022/01/30 06:10:03;;;;;;;2.87;2.00;;;5.30;99.90;;;;;;5010389;28;20020;-82
2022/01/30 06:12:29;;;;;;;2.87;2.00;;;5.20;99.90;;;;;;5011995;28;20037;-83
2022/01/30 06:14:55;;;;;;;2.60;2.20;;;5.20;99.90;;;;;;5010563;28;20026;-83
2022/01/30 06:17:21;;;;;;;2.23;1.90;;;5.20;99.90;;;;;;5010485;28;20383;-82
2022/01/30 06:19:47;;;;;;;2.00;1.70;;;5.20;99.90;;;;;;5011664;28;20033;-83
2022/01/30 06:22:12;;;;;;;2.60;1.83;;;5.20;99.90;;;;;;5010290;28;20057;-83
2022/01/30 06:24:38;;;;;;;2.20;1.80;;;5.20;99.90;;;;;;5008816;28;20549;-83
2022/01/30 06:27:04;;;;;;;2.40;1.80;;;5.20;99.90;;;;;;5008359;28;20037;-83
2022/01/30 06:29:29;;;;;;;2.60;2.10;;;5.20;99.90;;;;;;5011942;28;20075;-83
2022/01/30 06:31:55;;;;;;;3.07;2.20;;;5.20;99.90;;;;;;5010338;28;20022;-83
2022/01/30 06:34:20;;;;;;;2.87;2.30;;;5.10;99.90;;;;;;5004573;28;20041;-83
2022/01/30 06:36:46;;;;;;;2.83;2.13;;;5.00;99.90;;;;;;5007243;28;20022;-83
2022/01/30 06:39:11;;;;;;;4.50;2.20;;;5.00;99.90;;;;;;5010696;28;20494;-83
2022/01/30 06:41:37;;;;;;;4.23;2.53;;;5.10;99.90;;;;;;5010015;28;20502;-84
2022/01/30 06:44:05;;;;;;;3.20;2.70;;;5.10;99.90;;;;;;5005131;28;20050;-84
2022/01/30 06:46:30;;;;;;;4.30;2.90;;;5.00;99.90;;;;;;5010814;28;20561;-83
2022/01/30 06:48:56;;;;;;;3.80;3.10;;;5.00;99.90;;;;;;5008832;28;20079;-83
2022/01/30 06:51:22;;;;;;;4.27;2.83;;;4.90;99.90;;;;;;5008405;28;20053;-81
2022/01/30 06:53:47;;;;;;;4.60;2.93;;;4.90;99.90;;;;;;5005913;28;20042;-82
2022/01/30 06:56:13;;;;;;;2.97;2.40;;;5.00;99.90;;;;;;5001689;28;20026;-82
2022/01/30 06:58:38;;;;;;;3.13;2.23;;;5.10;99.90;;;;;;5010156;28;20669;-82
2022/01/30 07:01:04;;;;;;;3.20;2.03;;;5.20;99.90;;;;;;5011604;28;20029;-82
2022/01/30 07:03:29;;;;;;;4.77;2.30;;;5.10;99.90;;;;;;5007582;28;20060;-83
2022/01/30 07:05:55;;;;;;;3.70;2.00;;;5.10;99.90;;;;;;5008608;28;20104;-83
2022/01/30 07:08:20;;;;;;;2.83;1.73;;;5.20;99.90;;;;;;5008425;28;20394;-83
2022/01/30 07:10:46;;;;;;;1.93;1.40;;;5.20;99.90;;;;;;5010691;28;20134;-83
2022/01/30 07:13:12;;;;;;;2.80;1.50;;;5.30;99.90;;;;;;5007981;28;20018;-67
2022/01/30 07:15:41;;;;;;;1.67;1.30;;;5.30;99.90;;;;;;5007486;28;20073;-83
2022/01/30 07:18:06;;;;;;;1.87;1.40;;;5.20;99.90;;;;;;5011336;28;20026;-83
2022/01/30 07:20:32;;;;;;;1.80;1.30;;;5.30;99.90;;;;;;5005211;28;20106;-83
2022/01/30 07:22:57;;;;;;;1.30;1.20;;;5.20;99.90;;;;;;5007672;28;20030;-82
2022/01/30 07:25:23;;;;;;;1.67;1.27;;;5.30;99.90;;;;;;5003742;28;20141;-84
2022/01/30 07:27:49;;;;;;;1.40;1.20;;;5.40;99.90;;;;;;5008019;28;20029;-83
2022/01/30 07:30:14;;;;;;;2.07;1.20;;;5.30;99.90;;;;;;5007119;28;20057;-83
2022/01/30 07:32:40;;;;;;;1.40;1.10;;;5.30;99.90;;;;;;4998576;28;20117;-83
2022/01/30 07:35:06;;;;;;;1.83;1.30;;;5.20;99.90;;;;;;5007677;28;20112;-82
2022/01/30 07:37:33;;;;;;;1.70;1.10;;;5.10;99.90;;;;;;5005097;28;20031;-82
2022/01/30 07:40:00;;;;;;;1.60;1.10;;;5.10;99.90;;;;;;4998584;28;20033;-82
2022/01/30 07:42:26;;;;;;;1.80;1.10;;;5.20;99.90;;;;;;5009868;28;20486;-82
2022/01/30 07:44:52;;;;;;;8.37;1.30;;;5.20;99.90;;;;;;5023475;28;20030;-82
2022/01/30 07:47:19;;;;;;;2.07;1.10;;;5.20;99.90;;;;;;5015936;28;20026;-83
2022/01/30 07:49:51;;;;;;;1.13;1.03;;;5.20;99.90;;;;;;5017081;28;20045;-84
2022/01/30 07:52:20;;;;;;;3.30;1.60;;;5.20;99.90;;;;;;5018698;28;20087;-83
2022/01/30 07:54:46;;;;;;;2.73;1.50;;;5.10;99.90;;;;;;5011048;28;20033;-77
2022/01/30 07:57:12;;;;;;;4.17;1.40;;;5.30;99.90;;;;;;5013488;28;20109;-77
2022/01/30 07:59:38;;;;;;;7.20;1.67;;;5.40;99.90;;;;;;5013534;28;20030;-77
2022/01/30 08:02:04;;;;;;;5.87;1.93;;;5.50;99.90;;;;;;5013081;28;20475;-77
2022/01/30 08:04:29;;;;;;;2.73;1.83;;;5.50;99.90;;;;;;5012803;28;20041;-78
2022/01/30 08:06:55;;;;;;;8.23;2.50;;;5.50;99.90;;;;;;5005538;28;20393;-78
2022/01/30 08:09:21;;;;;;;3.60;1.70;;;5.50;99.90;;;;;;5007370;28;20060;-78
2022/01/30 08:11:47;;;;;;;5.43;1.70;;;5.50;99.90;;;;;;5003795;28;20041;-78
2022/01/30 08:14:12;;;;;;;6.60;1.87;;;5.40;99.90;;;;;;4995413;28;20031;-78
2022/01/30 08:16:39;;;;;;;5.87;1.70;;;5.40;99.90;;;;;;5008622;28;20019;-85
2022/01/30 08:19:04;;;;;;;4.77;1.90;;;5.50;99.90;;;;;;5007831;28;20045;-86
2022/01/30 08:21:30;;;;;;;6.43;2.23;;;5.50;99.90;;;;;;5010995;28;20421;-78
2022/01/30 08:23:56;;;;;;;4.50;2.07;;;5.50;99.90;;;;;;5009792;28;20026;-77
2022/01/30 08:26:22;;;;;;;6.20;1.63;;;5.40;99.90;;;;;;5011591;28;20370;-80
2022/01/30 08:28:47;;;;;;;2.90;1.30;;;5.40;99.90;;;;;;5007393;28;20065;-76
2022/01/30 08:31:13;;;;;;;3.50;1.40;;;5.40;99.90;;;;;;5001502;28;20435;-78
2022/01/30 08:33:39;;;;;;;3.87;1.60;;;5.40;99.90;;;;;;5012764;28;20028;-77
2022/01/30 08:36:05;;;;;;;5.43;1.70;;;5.30;99.90;;;;;;5011735;28;20013;-77
2022/01/30 08:38:30;;;;;;;3.33;1.40;;;5.30;99.90;;;;;;5005196;28;20037;-76
2022/01/30 08:40:56;;;;;;;3.33;1.50;;;5.30;99.90;;;;;;5010330;28;20026;-76
2022/01/30 08:43:22;;;;;;;3.17;1.30;;;5.20;99.90;;;;;;5013306;28;20454;-76
2022/01/30 08:45:50;;;;;;;2.43;1.30;;;5.30;99.90;;;;;;5013144;28;20305;-76
2022/01/30 08:48:15;;;;;;;3.20;1.23;;;5.50;99.90;;;;;;5013149;28;20026;-76
2022/01/30 08:50:41;;;;;;;4.00;1.50;;;5.70;99.90;;;;;;5012094;28;20028;-76
2022/01/30 08:53:07;;;;;;;3.73;1.20;;;5.70;99.90;;;;;;5013137;28;20021;-76
2022/01/30 08:55:33;;;;;;;5.77;1.73;;;5.70;99.90;;;;;;4995534;28;20364;-77
2022/01/30 08:58:08;;;;;;;2.50;1.40;;;5.80;99.90;;;;;;5013128;28;20102;-76
2022/01/30 09:00:39;;;;;;;3.15;1.80;;;5.80;99.90;;;;;;5011799;28;20022;-76
2022/01/30 09:03:05;;;;;;;5.30;1.50;;;6.00;99.90;;;;;;5013032;28;20120;-77
2022/01/30 09:05:33;;;;;;;5.63;1.93;;;6.10;99.90;;;;;;5013171;28;20057;-76
2022/01/30 09:08:04;;;;;;;4.23;2.33;;;6.20;99.90;;;;;;5011979;28;20145;-77
2022/01/30 09:10:32;;;;;;;5.73;1.73;;;6.30;99.90;;;;;;5013128;28;20026;-77
2022/01/30 09:12:59;;;;;;;3.27;1.50;;;6.30;99.90;;;;;;5011671;28;20061;-85
2022/01/30 09:15:37;;;;;;;5.43;1.73;;;6.30;99.90;;;;;;5010755;28;20117;-84
2022/01/30 09:18:10;;;;;;;5.13;1.83;;;6.40;99.90;;;;;;5008022;28;20034;-84
2022/01/30 09:20:42;;;;;;;11.37;2.40;;;6.30;99.90;;;;;;4991099;28;20162;-84
2022/01/30 09:23:13;;;;;;;10.73;2.50;;;6.20;99.90;;;;;;4998676;28;20076;-83
2022/01/30 09:25:41;;;;;;;5.67;2.10;;;6.10;99.90;;;;;;5013006;28;20080;-75
2022/01/30 09:28:09;;;;;;;8.80;2.10;;;6.10;99.90;;;;;;5015176;28;20142;-82
2022/01/30 09:30:37;;;;;;;7.57;2.10;;;6.10;99.90;;;;;;5013362;28;20022;-84
2022/01/30 09:33:04;;;;;;;11.80;2.70;;;6.00;99.90;;;;;;5013884;28;20040;-83
2022/01/30 09:35:29;;;;;;;7.57;2.10;;;6.00;99.90;;;;;;5013487;28;20276;-84
2022/01/30 09:37:55;;;;;;;9.47;2.60;;;5.90;99.90;;;;;;5014962;28;20125;-76
2022/01/30 09:40:20;;;;;;;9.23;2.73;;;5.90;99.90;;;;;;5016113;28;20436;-76
2022/01/30 09:42:47;;;;;;;8.57;2.60;;;5.90;99.90;;;;;;5016302;28;20040;-76
2022/01/30 09:45:14;;;;;;;5.83;1.90;;;6.00;99.90;;;;;;5014921;28;20418;-76
2022/01/30 09:47:41;;;;;;;7.63;2.30;;;6.00;99.90;;;;;;5015997;28;20486;-76
2022/01/30 09:50:11;;;;;;;8.83;2.20;;;5.90;99.90;;;;;;5014703;28;20029;-76
2022/01/30 09:52:37;;;;;;;8.63;2.67;;;5.80;99.90;;;;;;5015769;28;20053;-77
2022/01/30 09:55:11;;;;;;;8.97;2.67;;;5.80;99.90;;;;;;5014506;28;20140;-76
2022/01/30 09:57:37;;;;;;;12.17;2.50;;;5.80;99.90;;;;;;5016104;28;20069;-76
2022/01/30 10:00:07;;;;;;;15.83;2.93;;;5.80;99.90;;;;;;5016217;28;20049;-76
2022/01/30 10:02:33;;;;;;;7.33;2.67;;;5.80;99.90;;;;;;5015570;28;20050;-76
2022/01/30 10:04:59;;;;;;;6.23;1.90;;;5.90;99.90;;;;;;5015676;28;20061;-76
2022/01/30 10:07:53;;;;;;;8.80;3.07;;;5.90;99.90;;;;;;5015486;28;20034;-76
2022/01/30 10:10:23;;;;;;;8.60;2.20;;;5.90;99.90;;;;;;5015572;28;20112;-76
2022/01/30 10:13:01;;;;;;;7.67;2.70;;;6.00;99.90;;;;;;5015566;28;20109;-76
2022/01/30 10:15:27;;;;;;;11.97;2.47;;;6.10;99.90;;;;;;5015569;28;20034;-76
2022/01/30 10:17:53;;;;;;;9.90;2.57;;;6.20;99.90;;;;;;5015233;28;20026;-76
2022/01/30 10:20:21;;;;;;;12.13;3.17;;;6.20;99.90;;;;;;5013773;28;20128;-77
2022/01/30 10:22:51;;;;;;;12.70;3.13;;;6.20;99.90;;;;;;5013975;28;20408;-76
2022/01/30 10:25:38;;;;;;;6.50;2.60;;;6.20;99.90;;;;;;5004367;28;20121;-76
2022/01/30 10:28:14;;;;;;;9.00;2.53;;;6.20;99.90;;;;;;4993849;28;20065;-76
2022/01/30 10:30:48;;;;;;;10.20;2.80;;;6.20;99.90;;;;;;5010482;28;20030;-76
2022/01/30 10:33:16;;;;;;;8.45;2.85;;;6.30;99.90;;;;;;5010701;28;20435;-76
2022/01/30 10:35:52;;;;;;;10.73;2.87;;;6.30;99.90;;;;;;4995327;28;20038;-77
2022/01/30 10:38:23;;;;;;;7.90;2.53;;;6.50;99.90;;;;;;4994390;28;20122;-76
2022/01/30 10:41:10;;;;;;;10.83;3.37;;;6.70;99.90;;;;;;4995454;28;20034;-76
2022/01/30 10:43:54;;;;;;;7.70;2.67;;;7.00;99.90;;;;;;4995593;28;20026;-76
2022/01/30 10:46:26;;;;;;;9.80;3.23;;;7.20;99.90;;;;;;4995673;28;20022;-76
2022/01/30 10:49:12;;;;;;;7.10;2.30;;;7.20;99.90;;;;;;4995129;28;20074;-76
2022/01/30 10:51:40;;;;;;;10.63;2.90;;;7.30;99.90;;;;;;4995295;28;20365;-76
2022/01/30 10:54:11;;;;;;;8.90;2.40;;;7.40;99.90;;;;;;4995175;28;20149;-76
2022/01/30 10:56:37;;;;;;;8.23;2.53;;;7.50;99.90;;;;;;4995228;28;20061;-77
2022/01/30 10:59:20;;;;;;;10.77;3.13;;;7.40;99.90;;;;;;4994930;28;20018;-76
2022/01/30 11:01:48;;;;;;;10.27;3.27;;;7.40;99.90;;;;;;4998669;28;20083;-77
2022/01/30 11:04:24;;;;;;;11.13;3.00;;;7.30;99.90;;;;;;5014444;28;20042;-77
2022/01/30 11:06:51;;;;;;;11.90;2.77;;;7.30;99.90;;;;;;5014466;28;20383;-77
2022/01/30 11:09:23;;;;;;;9.83;2.80;;;7.20;99.90;;;;;;5014570;28;20030;-77
2022/01/30 11:11:54;;;;;;;12.50;3.10;;;7.20;99.90;;;;;;5014312;28;20038;-76
2022/01/30 11:14:23;;;;;;;9.83;3.40;;;7.20;99.90;;;;;;5014497;28;20084;-77
2022/01/30 11:17:02;;;;;;;7.77;2.90;;;7.30;99.90;;;;;;5014508;28;20049;-77
2022/01/30 11:19:29;;;;;;;8.87;2.83;;;7.40;99.90;;;;;;5014292;28;20097;-77
2022/01/30 11:22:05;;;;;;;9.30;2.40;;;7.70;99.90;;;;;;5012711;28;20026;-76
2022/01/30 11:24:34;;;;;;;11.93;3.00;;;7.90;99.90;;;;;;5013976;28;20105;-77
2022/01/30 11:27:00;;;;;;;6.53;1.90;;;8.00;99.90;;;;;;5014173;28;20398;-77
2022/01/30 11:29:28;;;;;;;9.57;2.53;;;8.00;99.90;;;;;;5014200;28;20029;-76
2022/01/30 11:31:54;;;;;;;5.07;2.03;;;7.80;99.90;;;;;;5014004;28;20073;-76
2022/01/30 11:34:23;;;;;;;9.00;2.33;;;7.70;99.90;;;;;;5013413;28;20571;-77
2022/01/30 11:36:49;;;;;;;11.50;2.60;;;7.70;99.90;;;;;;5012003;28;20112;-77
2022/01/30 11:39:18;;;;;;;8.10;1.87;;;7.80;99.90;;;;;;5013573;28;20089;-77
2022/01/30 11:42:05;;;;;;;10.87;2.87;;;7.80;99.90;;;;;;5012563;28;20026;-77
2022/01/30 11:44:31;;;;;;;10.57;3.47;;;8.10;99.90;;;;;;5013908;28;20022;-78
2022/01/30 11:46:59;;;;;;;13.43;3.93;;;8.30;99.90;;;;;;5013822;28;20026;-77
2022/01/30 11:49:49;;;;;;;9.97;2.60;;;8.50;99.90;;;;;;5012503;28;20053;-77
2022/01/30 11:52:16;;;;;;;15.13;3.47;;;8.50;99.90;;;;;;5012027;28;20030;-77
2022/01/30 11:54:50;;;;;;;13.10;2.97;;;8.70;99.90;;;;;;5013185;28;20092;-77
2022/01/30 11:57:22;;;;;;;8.77;2.58;;;8.50;99.90;;;;;;5012242;28;20053;-78
2022/01/30 11:59:49;;;;;;;9.93;2.57;;;8.40;99.90;;;;;;5013301;28;20101;-78
2022/01/30 12:02:21;;;;;;;11.50;2.50;;;8.40;99.90;;;;;;5013281;28;20080;-78
2022/01/30 12:04:54;;;;;;;8.57;2.60;;;8.30;99.90;;;;;;5013212;28;20108;-78
2022/01/30 12:07:45;;;;;;;9.63;2.93;;;8.50;99.90;;;;;;5013363;28;20034;-78
2022/01/30 12:10:24;;;;;;;9.67;2.90;;;8.60;99.90;;;;;;5011916;28;20052;-76
2022/01/30 12:13:03;;;;;;;7.23;2.20;;;8.60;99.90;;;;;;5012919;28;20120;-78
2022/01/30 12:15:43;;;;;;;11.70;3.23;;;8.60;99.90;;;;;;5012897;28;20018;-78
2022/01/30 12:18:13;;;;;;;9.27;2.60;;;8.70;99.90;;;;;;5012464;28;20080;-65
2022/01/30 12:20:59;;;;;;;8.27;2.53;;;8.80;99.90;;;;;;5011077;28;20026;-64
2022/01/30 12:23:30;;;;;;;7.10;2.40;;;9.00;99.90;;;;;;5013204;28;20022;-79
2022/01/30 12:26:08;;;;;;;9.03;2.47;;;9.00;99.90;;;;;;5012294;28;20022;-83
2022/01/30 12:28:42;;;;;;;8.70;2.10;;;9.00;99.90;;;;;;5011009;28;20485;-81
2022/01/30 12:31:34;;;;;;;8.70;1.90;;;9.10;99.90;;;;;;5003118;28;20374;-80
2022/01/30 12:34:06;;;;;;;9.00;2.20;;;9.10;99.90;;;;;;5012121;28;20105;-80
2022/01/30 12:36:36;;;;;;;5.97;2.07;;;9.00;99.90;;;;;;5006827;28;20451;-81
2022/01/30 12:39:08;;;;;;;10.13;2.40;;;9.00;99.90;;;;;;5012158;28;20045;-81
2022/01/30 12:41:35;;;;;;;9.67;2.50;;;8.90;99.90;;;;;;4997282;28;20113;-80
2022/01/30 12:44:03;;;;;;;7.40;2.40;;;9.00;99.90;;;;;;4993119;28;20030;-85
2022/01/30 12:46:36;;;;;;;10.33;2.97;;;8.90;99.90;;;;;;4997296;28;20057;-85
2022/01/30 12:49:06;;;;;;;8.90;2.23;;;8.90;99.90;;;;;;5013034;28;20105;-83
2022/01/30 12:51:33;;;;;;;5.63;1.83;;;9.00;99.90;;;;;;5013056;28;20410;-84
2022/01/30 12:53:59;;;;;;;8.17;2.23;;;9.10;99.90;;;;;;5008858;28;20103;-83
2022/01/30 12:56:26;;;;;;;7.50;2.17;;;9.20;99.90;;;;;;5011765;28;20022;-84
2022/01/30 12:58:56;;;;;;;7.83;2.33;;;9.30;99.90;;;;;;5011505;28;20075;-85
2022/01/30 13:01:30;;;;;;;7.43;2.20;;;9.20;99.90;;;;;;5007357;28;20045;-85
2022/01/30 13:04:11;;;;;;;9.10;3.23;;;9.20;99.90;;;;;;5012839;28;20046;-83
2022/01/30 13:06:39;;;;;;;8.23;2.20;;;9.20;99.90;;;;;;5011613;28;20466;-81
2022/01/30 13:09:06;;;;;;;9.07;2.87;;;9.30;99.90;;;;;;5013100;28;20490;-80
2022/01/30 13:11:32;;;;;;;7.20;2.30;;;9.30;99.90;;;;;;5012064;28;20046;-81
2022/01/30 13:13:59;;;;;;;5.93;2.30;;;9.30;99.90;;;;;;5013424;28;20029;-82
2022/01/30 13:16:28;;;;;;;8.63;2.23;;;9.20;99.90;;;;;;5013065;28;20029;-81
2022/01/30 13:18:54;;;;;;;8.23;2.40;;;9.10;99.90;;;;;;5013163;28;20367;-82
2022/01/30 13:21:25;;;;;;;11.13;2.63;;;9.30;99.90;;;;;;5013157;28;20034;-79
2022/01/30 13:23:51;;;;;;;7.37;2.30;;;9.20;99.90;;;;;;5012957;28;20022;-79
2022/01/30 13:26:38;;;;;;;7.97;2.77;;;9.20;99.90;;;;;;5011739;28;20418;-79
2022/01/30 13:29:08;;;;;;;8.17;2.50;;;9.30;99.90;;;;;;5011639;28;20049;-80
2022/01/30 13:31:37;;;;;;;9.03;2.70;;;9.40;99.90;;;;;;5012945;28;20026;-79
2022/01/30 13:34:10;;;;;;;9.93;2.90;;;9.50;99.90;;;;;;5012821;28;20033;-79
2022/01/30 13:36:36;;;;;;;9.63;2.87;;;9.40;99.90;;;;;;5013122;28;20057;-79
2022/01/30 13:39:07;;;;;;;7.33;2.27;;;9.30;99.90;;;;;;5012942;28;20076;-79
2022/01/30 13:41:45;;;;;;;7.97;2.37;;;9.30;99.90;;;;;;5013071;28;20026;-79
2022/01/30 13:44:22;;;;;;;10.00;2.47;;;9.20;99.90;;;;;;5012948;28;20109;-79
2022/01/30 13:47:02;;;;;;;11.20;2.47;;;8.80;99.90;;;;;;5012699;28;20030;-80